Time;durP1;ratioP1;P1;durP2;ratioP2;P2;SDS_P1;SDS_P2;PMS_P1;PMS_P2;Temp;Humidity;BMP_temperature;BMP_pressure;BME280_temperature;BME280_humidity;BME280_pressure;Samples;Min_cycle;Max_cycle;Signal;HPM_P1;HPM_P2
2022/09/10 00:00:38;;;;;;;4.55;1.33;;;;;;;22.22;52.74;100852.47;4977659;28;20537;-64
2022/09/10 00:03:04;;;;;;;4.63;1.40;;;;;;;22.25;52.97;100853.97;4962652;28;20031;-65
2022/09/10 00:05:29;;;;;;;3.97;1.20;;;;;;;22.17;53.09;100841.44;4974942;28;20045;-64
2022/09/10 00:07:55;;;;;;;5.72;1.50;;;;;;;22.23;53.19;100855.94;4981529;28;20113;-63
2022/09/10 00:10:20;;;;;;;2.75;1.20;;;;;;;22.23;53.21;100861.25;4981459;28;20030;-65
2022/09/10 00:12:50;;;;;;;3.38;1.13;;;;;;;22.22;53.51;100846.28;4974410;28;20023;-65
2022/09/10 00:15:16;;;;;;;3.70;1.42;;;;;;;22.21;53.08;100853.44;4981939;28;20026;-65
2022/09/10 00:17:41;;;;;;;3.08;1.00;;;;;;;22.22;53.39;100846.28;4975314;28;20037;-64
2022/09/10 00:20:08;;;;;;;2.90;1.20;;;;;;;22.18;53.06;100848.44;4977154;28;20378;-64
2022/09/10 00:22:33;;;;;;;3.65;1.20;;;;;;;22.21;53.26;100842.81;4962871;28;20030;-64
2022/09/10 00:24:58;;;;;;;4.05;1.40;;;;;;;22.18;53.23;100845.78;4975605;28;20454;-64
2022/09/10 00:27:25;;;;;;;4.45;1.30;;;;;;;22.18;52.94;100845.78;4967211;28;20030;-64
2022/09/10 00:29:51;;;;;;;3.90;1.40;;;;;;;22.16;53.20;100837.13;4967675;28;20062;-65
2022/09/10 00:32:17;;;;;;;4.97;1.33;;;;;;;22.13;53.50;100831.28;4975857;28;20164;-65
2022/09/10 00:34:42;;;;;;;6.35;1.30;;;;;;;22.14;52.96;100840.91;4981903;28;20126;-66
2022/09/10 00:37:07;;;;;;;4.05;1.27;;;;;;;22.15;53.42;100842.59;4981599;28;20371;-64
2022/09/10 00:39:33;;;;;;;5.07;1.60;;;;;;;22.18;53.33;100847.59;4976978;28;20166;-65
2022/09/10 00:41:58;;;;;;;4.65;1.35;;;;;;;22.17;53.38;100845.91;4962239;28;20276;-64
2022/09/10 00:44:38;;;;;;;3.33;1.30;;;;;;;22.17;53.13;100852.06;4965955;28;20019;-64
2022/09/10 00:47:11;;;;;;;3.40;1.20;;;;;;;22.17;53.22;100851.22;4981102;28;20450;-66
2022/09/10 00:49:41;;;;;;;3.83;1.95;;;;;;;22.14;53.29;100840.91;4969111;28;20049;-65
2022/09/10 00:52:06;;;;;;;4.68;1.40;;;;;;;22.14;53.05;100846.22;4977044;28;20518;-65
2022/09/10 00:54:34;;;;;;;5.60;1.33;;;;;;;22.06;53.14;100829.25;4968003;28;20027;-65
2022/09/10 00:57:06;;;;;;;4.43;1.15;;;;;;;22.05;53.17;100826.75;4981459;28;20033;-65
2022/09/10 00:59:32;;;;;;;3.47;1.15;;;;;;;22.13;53.20;100839.25;4979341;28;20030;-65
2022/09/10 01:01:58;;;;;;;4.45;1.25;;;;;;;22.17;52.94;100849.41;4965474;28;20042;-65
2022/09/10 01:04:25;;;;;;;3.60;1.30;;;;;;;22.12;52.90;100846.38;4978153;28;20110;-64
2022/09/10 01:06:51;;;;;;;4.13;1.48;;;;;;;22.12;53.05;100851.69;4967985;28;20045;-65
2022/09/10 01:09:19;;;;;;;3.50;1.33;;;;;;;22.13;53.46;100853.38;4962349;28;20042;-66
2022/09/10 01:12:13;;;;;;;6.15;1.55;;;;;;;22.16;53.49;100858.38;4980138;28;20088;-65
2022/09/10 01:14:59;;;;;;;3.53;1.25;;;;;;;22.16;53.50;100860.16;4972221;28;20039;-65
2022/09/10 01:18:02;;;;;;;3.92;1.38;;;;;;;22.14;53.50;100859.50;4977717;28;20030;-64
2022/09/10 01:20:49;;;;;;;2.97;1.10;;;;;;;22.10;53.36;100853.66;4944212;28;20503;-65
2022/09/10 01:23:33;;;;;;;4.20;1.50;;;;;;;22.13;53.44;100863.13;4979016;28;20030;-63
2022/09/10 01:26:20;;;;;;;5.03;1.50;;;;;;;22.12;53.50;100856.16;4980465;28;20553;-64
2022/09/10 01:29:01;;;;;;;5.00;1.50;;;;;;;22.08;53.49;100853.81;4972925;28;20041;-64
2022/09/10 01:31:48;;;;;;;4.68;1.40;;;;;;;22.12;53.70;100853.50;4974394;28;20074;-65
2022/09/10 01:34:25;;;;;;;3.83;1.30;;;;;;;22.08;53.98;100852.97;4969842;28;20083;-66
2022/09/10 01:36:54;;;;;;;5.40;1.50;;;;;;;22.07;53.41;100852.13;4975920;28;20092;-65
2022/09/10 01:39:23;;;;;;;4.63;1.50;;;;;;;22.07;53.74;100857.44;4980179;28;20037;-65
2022/09/10 01:41:50;;;;;;;5.20;1.40;;;;;;;22.10;53.61;100854.47;4967886;28;20038;-64
2022/09/10 01:44:46;;;;;;;4.95;1.48;;;;;;;22.10;53.61;100853.66;4980367;28;20046;-63
2022/09/10 01:47:50;;;;;;;4.15;1.50;;;;;;;22.11;53.62;100855.31;4969501;28;20455;-65
2022/09/10 01:50:40;;;;;;;4.68;1.40;;;;;;;22.09;53.81;100852.81;4973934;28;20493;-65
2022/09/10 01:53:43;;;;;;;4.57;1.50;;;;;;;22.10;53.78;100856.31;4969924;28;20081;-63
2022/09/10 01:56:25;;;;;;;3.38;1.40;;;;;;;22.06;53.81;100849.63;4977470;28;21019;-65
2022/09/10 01:58:53;;;;;;;7.63;1.92;;;;;;;22.05;54.08;100843.50;4976784;28;20109;-64
2022/09/10 02:01:31;;;;;;;4.75;1.38;;;;;;;22.05;53.78;100840.84;4964785;28;20129;-65
2022/09/10 02:04:03;;;;;;;4.10;1.35;;;;;;;22.03;54.33;100834.84;4973252;28;20034;-65
2022/09/10 02:06:33;;;;;;;4.15;1.42;;;;;;;22.08;54.16;100842.38;4982663;28;20132;-65
2022/09/10 02:09:00;;;;;;;5.25;1.60;;;;;;;22.04;54.18;100838.34;4977510;28;20039;-64
2022/09/10 02:11:26;;;;;;;3.88;1.45;;;;;;;22.07;53.95;100844.16;4973783;28;20031;-64
2022/09/10 02:13:52;;;;;;;6.00;1.50;;;;;;;22.07;54.16;100849.47;4975937;28;20038;-64
2022/09/10 02:16:31;;;;;;;4.00;1.42;;;;;;;22.08;53.97;100851.16;4978749;28;21030;-65
2022/09/10 02:18:58;;;;;;;5.78;1.77;;;;;;;22.07;54.35;100841.50;4972512;28;20031;-64
2022/09/10 02:21:24;;;;;;;5.13;1.70;;;;;;;22.07;54.35;100840.69;4973268;28;20027;-64
2022/09/10 02:23:55;;;;;;;3.72;1.48;;;;;;;22.05;54.39;100830.22;4970479;28;20042;-65
2022/09/10 02:26:21;;;;;;;4.93;1.50;;;;;;;22.08;54.53;100834.41;4970382;28;20567;-65
2022/09/10 02:28:48;;;;;;;4.03;1.70;;;;;;;22.08;54.14;100839.72;4977140;28;20034;-64
2022/09/10 02:31:14;;;;;;;5.20;1.50;;;;;;;22.08;54.36;100837.06;4979054;28;20061;-64
2022/09/10 02:33:39;;;;;;;5.80;1.75;;;;;;;22.05;54.50;100832.06;4976238;28;20031;-64
2022/09/10 02:36:05;;;;;;;6.75;2.20;;;;;;;22.03;54.25;100826.91;4972261;28;20049;-64
2022/09/10 02:38:30;;;;;;;7.45;1.98;;;;;;;22.08;53.98;100834.41;4983079;28;20121;-64
2022/09/10 02:40:58;;;;;;;7.10;2.25;;;;;;;22.05;54.37;100832.88;4963975;28;20080;-65
2022/09/10 02:43:23;;;;;;;5.10;1.70;;;;;;;22.05;54.39;100830.22;4964174;28;20038;-64
2022/09/10 02:45:49;;;;;;;4.88;1.90;;;;;;;22.04;54.65;100822.41;4963785;28;20038;-65
2022/09/10 02:48:15;;;;;;;4.40;1.63;;;;;;;22.05;54.23;100822.25;4981336;28;20037;-63
2022/09/10 02:50:44;;;;;;;5.55;1.80;;;;;;;22.09;54.34;100836.06;4976230;28;20038;-65
2022/09/10 02:53:11;;;;;;;5.72;1.60;;;;;;;22.05;54.56;100830.22;4963678;28;20035;-65
2022/09/10 02:55:36;;;;;;;4.18;1.70;;;;;;;22.06;54.21;100831.91;4982140;28;20161;-64
2022/09/10 02:58:01;;;;;;;5.85;1.92;;;;;;;22.07;54.79;100830.06;4983218;28;20117;-64
2022/09/10 03:00:27;;;;;;;5.00;1.83;;;;;;;22.07;54.11;100827.41;4982919;28;20044;-65
2022/09/10 03:02:53;;;;;;;6.10;1.88;;;;;;;22.04;54.45;100819.75;4980875;28;20295;-64
2022/09/10 03:05:19;;;;;;;4.78;1.63;;;;;;;22.04;54.20;100828.53;4982592;28;20484;-66
2022/09/10 03:07:45;;;;;;;5.28;1.73;;;;;;;22.02;54.59;100827.03;4983123;28;20030;-66
2022/09/10 03:10:10;;;;;;;6.57;2.08;;;;;;;22.06;54.35;100833.69;4982722;28;20026;-65
2022/09/10 03:12:35;;;;;;;4.25;2.10;;;;;;;22.02;54.61;100825.22;4975782;28;20631;-63
2022/09/10 03:15:01;;;;;;;4.45;1.55;;;;;;;22.04;54.46;100835.69;4970697;28;20035;-65
2022/09/10 03:17:26;;;;;;;3.55;1.73;;;;;;;22.03;54.90;100832.22;4982746;28;20038;-64
2022/09/10 03:19:51;;;;;;;4.32;1.80;;;;;;;22.06;54.69;100839.00;4982584;28;20069;-65
2022/09/10 03:22:16;;;;;;;5.10;1.90;;;;;;;22.00;54.54;100821.88;4977798;28;20031;-65
2022/09/10 03:24:42;;;;;;;3.28;1.48;;;;;;;22.05;54.44;100835.53;4963401;28;20128;-66
2022/09/10 03:27:08;;;;;;;3.97;1.60;;;;;;;22.02;54.86;100827.03;4981288;28;20417;-63
2022/09/10 03:29:36;;;;;;;3.75;1.75;;;;;;;22.04;54.91;100833.84;4982350;28;20034;-65
2022/09/10 03:32:01;;;;;;;4.43;1.83;;;;;;;22.01;54.85;100823.53;4982350;28;20062;-66
2022/09/10 03:34:27;;;;;;;6.03;1.70;;;;;;;22.05;54.70;100832.06;4972599;28;20093;-65
2022/09/10 03:36:52;;;;;;;5.73;2.00;;;;;;;22.00;54.89;100824.53;4962941;28;20097;-65
2022/09/10 03:39:17;;;;;;;6.87;2.27;;;;;;;22.03;54.77;100826.91;4976543;28;20265;-65
2022/09/10 03:41:44;;;;;;;5.15;2.28;;;;;;;22.00;54.87;100827.19;4963226;28;21227;-65
2022/09/10 03:44:10;;;;;;;7.07;2.10;;;;;;;21.98;54.90;100818.53;4969025;28;20371;-65
2022/09/10 03:46:36;;;;;;;6.40;1.90;;;;;;;22.00;55.03;100826.34;4974531;28;20026;-63
2022/09/10 03:49:03;;;;;;;5.47;2.20;;;;;;;21.98;54.94;100820.38;4982472;28;20524;-66
2022/09/10 03:51:28;;;;;;;5.22;1.92;;;;;;;22.02;54.93;100825.22;4981171;28;20463;-65
2022/09/10 03:53:53;;;;;;;5.18;2.03;;;;;;;21.98;55.09;100817.72;4962808;28;20041;-66
2022/09/10 03:56:19;;;;;;;5.03;1.93;;;;;;;22.00;54.88;100815.72;4965848;28;20111;-65
2022/09/10 03:58:45;;;;;;;5.82;2.10;;;;;;;21.89;54.89;100811.50;4966789;28;20883;-65
2022/09/10 04:01:10;;;;;;;4.40;1.85;;;;;;;22.02;54.93;100825.22;4973586;28;20034;-65
2022/09/10 04:03:36;;;;;;;5.10;2.05;;;;;;;21.98;54.63;100818.53;4981850;28;20085;-65
2022/09/10 04:06:01;;;;;;;5.18;2.00;;;;;;;22.03;55.10;100824.25;4967309;28;20110;-65
2022/09/10 04:08:26;;;;;;;4.25;1.98;;;;;;;22.01;54.78;100820.06;4967975;28;20026;-66
2022/09/10 04:10:51;;;;;;;5.90;2.13;;;;;;;22.02;55.01;100822.56;4977167;28;20390;-65
2022/09/10 04:13:17;;;;;;;5.07;2.03;;;;;;;22.04;55.18;100814.47;4968765;28;20023;-65
2022/09/10 04:15:45;;;;;;;4.35;2.03;;;;;;;21.96;55.20;100804.59;4977314;28;20269;-65
2022/09/10 04:18:10;;;;;;;4.57;2.17;;;;;;;21.99;54.90;100809.59;4978071;28;20038;-65
2022/09/10 04:20:37;;;;;;;5.60;2.40;;;;;;;21.98;55.04;100805.25;4972835;28;20038;-64
2022/09/10 04:23:04;;;;;;;5.47;2.15;;;;;;;21.99;55.05;100806.13;4979365;28;20034;-65
2022/09/10 04:25:30;;;;;;;4.93;2.05;;;;;;;22.01;55.01;100814.75;4970212;28;20027;-65
2022/09/10 04:27:55;;;;;;;4.55;2.03;;;;;;;21.98;54.75;100805.25;4974553;28;20038;-64
2022/09/10 04:30:21;;;;;;;5.07;2.30;;;;;;;21.98;55.29;100802.59;4971040;28;20364;-65
2022/09/10 04:32:46;;;;;;;5.93;2.20;;;;;;;21.99;55.11;100801.63;4973830;28;20042;-64
2022/09/10 04:35:14;;;;;;;4.80;2.47;;;;;;;21.99;55.29;100806.13;4969455;28;20046;-64
2022/09/10 04:37:39;;;;;;;5.10;2.53;;;;;;;21.99;55.02;100809.59;4979073;28;20863;-65
2022/09/10 04:40:05;;;;;;;4.50;2.13;;;;;;;21.95;55.07;100796.78;4967211;28;20034;-64
2022/09/10 04:42:31;;;;;;;4.00;1.88;;;;;;;21.93;55.43;100807.53;4962195;28;20094;-64
2022/09/10 04:44:56;;;;;;;3.92;1.90;;;;;;;21.87;54.83;100797.53;4969660;28;21167;-66
2022/09/10 04:47:22;;;;;;;5.53;2.30;;;;;;;21.95;55.13;100818.81;4978030;28;20030;-64
2022/09/10 04:49:47;;;;;;;5.17;2.13;;;;;;;21.96;55.38;100812.53;4970991;28;20042;-65
2022/09/10 04:52:13;;;;;;;5.40;2.13;;;;;;;21.93;55.15;100813.66;4977246;28;20598;-65
2022/09/10 04:54:38;;;;;;;6.40;2.47;;;;;;;21.96;55.22;100809.91;4978866;28;20122;-64
2022/09/10 04:57:05;;;;;;;4.78;2.30;;;;;;;21.95;55.32;100804.75;4973560;28;20035;-63
2022/09/10 04:59:31;;;;;;;4.68;2.10;;;;;;;21.98;55.12;100818.53;4984514;28;20041;-64
2022/09/10 05:01:56;;;;;;;6.78;2.55;;;;;;;21.98;55.27;100815.88;4978476;28;20034;-65
2022/09/10 05:04:22;;;;;;;7.45;2.50;;;;;;;21.94;55.34;100814.53;4973075;28;20039;-66
2022/09/10 05:06:49;;;;;;;7.13;2.50;;;;;;;21.99;55.41;100819.38;4979836;28;20033;-65
2022/09/10 05:09:17;;;;;;;6.32;2.60;;;;;;;21.99;55.17;100825.53;4977075;28;20082;-64
2022/09/10 05:11:42;;;;;;;5.70;2.13;;;;;;;21.97;55.19;100824.84;4984885;28;20077;-64
2022/09/10 05:14:08;;;;;;;5.95;2.88;;;;;;;21.89;55.16;100806.19;4984985;28;20840;-65
2022/09/10 05:16:33;;;;;;;5.10;2.38;;;;;;;21.95;55.25;100815.34;4984657;28;20026;-66
2022/09/10 05:18:59;;;;;;;4.50;2.30;;;;;;;21.98;55.19;100821.19;4985139;28;20034;-65
2022/09/10 05:21:25;;;;;;;4.63;2.50;;;;;;;;;;4984914;28;20034;-64
2022/09/10 05:23:50;;;;;;;5.95;2.83;;;;;;;21.95;55.10;100820.66;4975255;28;20496;-64
2022/09/10 05:26:15;;;;;;;6.43;2.43;;;;;;;21.98;55.09;100829.16;4984755;28;20113;-65
2022/09/10 05:28:41;;;;;;;5.27;2.27;;;;;;;21.98;55.12;100823.84;4979082;28;20264;-65
2022/09/10 05:31:08;;;;;;;7.82;2.40;;;;;;;21.93;55.32;100815.50;4965108;28;20429;-63
2022/09/10 05:33:34;;;;;;;4.32;2.20;;;;;;;21.96;55.15;100815.19;4965096;28;20058;-65
2022/09/10 05:35:59;;;;;;;5.60;2.53;;;;;;;21.95;55.60;100815.34;4966813;28;20062;-64
2022/09/10 05:38:25;;;;;;;5.83;2.43;;;;;;;21.94;55.39;100819.84;4965321;28;20039;-65
2022/09/10 05:40:51;;;;;;;5.68;2.60;;;;;;;21.95;55.52;100828.63;4980733;28;20488;-64
2022/09/10 05:43:16;;;;;;;7.85;2.83;;;;;;;21.96;55.41;100822.34;4984461;28;20116;-64
2022/09/10 05:45:41;;;;;;;5.32;2.53;;;;;;;21.96;55.43;100827.66;4975904;28;20041;-63
2022/09/10 05:48:06;;;;;;;6.40;2.60;;;;;;;21.93;55.49;100820.81;4965312;28;21238;-67
2022/09/10 05:50:32;;;;;;;5.07;2.60;;;;;;;21.96;55.66;100823.16;4970476;28;20027;-65
2022/09/10 05:52:57;;;;;;;7.60;2.70;;;;;;;21.95;55.43;100821.47;4983645;28;20030;-65
2022/09/10 05:55:22;;;;;;;8.20;2.50;;;;;;;21.98;55.59;100823.84;4978900;28;20271;-65
2022/09/10 05:57:48;;;;;;;4.60;2.33;;;;;;;22.02;55.27;100827.88;4977520;28;21009;-66
2022/09/10 06:00:14;;;;;;;3.28;1.88;;;;;;;22.08;55.22;100832.59;4981894;28;20069;-64
2022/09/10 06:02:40;;;;;;;5.18;1.90;;;;;;;22.12;55.28;100824.31;4964997;28;20043;-65
2022/09/10 06:05:06;;;;;;;5.45;2.40;;;;;;;22.09;55.40;100818.31;4973785;28;20034;-66
2022/09/10 06:07:31;;;;;;;5.40;2.20;;;;;;;22.10;55.07;100822.63;4964751;28;20031;-64
2022/09/10 06:09:57;;;;;;;4.20;2.10;;;;;;;22.18;55.46;100832.50;4964832;28;20118;-64
2022/09/10 06:12:23;;;;;;;5.53;2.20;;;;;;;22.17;55.57;100824.69;4964616;28;20130;-65
2022/09/10 06:14:48;;;;;;;4.95;2.10;;;;;;;22.19;55.19;100818.25;4964614;28;20352;-65
2022/09/10 06:17:16;;;;;;;4.38;2.00;;;;;;;22.24;55.46;100831.91;4966629;28;20053;-65
2022/09/10 06:19:43;;;;;;;4.88;1.85;;;;;;;22.22;55.13;100827.72;4968432;28;20074;-66
2022/09/10 06:22:09;;;;;;;4.93;2.28;;;;;;;22.22;55.28;100814.44;4967377;28;20042;-64
2022/09/10 06:24:35;;;;;;;4.03;1.90;;;;;;;22.23;54.96;100829.41;4981006;28;20030;-65
2022/09/10 06:27:01;;;;;;;6.97;2.47;;;;;;;22.23;55.63;100824.91;4983241;28;20105;-64
2022/09/10 06:29:28;;;;;;;4.47;2.22;;;;;;;22.28;55.16;100835.91;4974541;28;20062;-64
2022/09/10 06:31:53;;;;;;;7.53;2.67;;;;;;;22.27;55.21;100842.22;4972978;28;20046;-63
2022/09/10 06:34:18;;;;;;;3.67;2.05;;;;;;;22.21;55.15;100824.22;4964387;28;20374;-63
2022/09/10 06:36:47;;;;;;;4.40;2.07;;;;;;;22.33;55.40;100839.97;4964788;28;20049;-65
2022/09/10 06:39:13;;;;;;;4.50;2.00;;;;;;;22.26;55.54;100832.56;4983143;28;20819;-64
2022/09/10 06:41:38;;;;;;;6.80;2.57;;;;;;;22.34;55.29;100849.59;4973237;28;20156;-65
2022/09/10 06:44:03;;;;;;;4.88;2.38;;;;;;;22.33;55.20;100840.78;4983384;28;20260;-65
2022/09/10 06:46:29;;;;;;;4.83;2.17;;;;;;;22.32;55.41;100838.28;4978847;28;20038;-65
2022/09/10 06:48:59;;;;;;;6.70;2.38;;;;;;;22.33;55.10;100843.44;4968866;28;20032;-65
2022/09/10 06:51:25;;;;;;;4.88;2.20;;;;;;;22.29;55.35;100842.06;4978908;28;20035;-64
2022/09/10 06:53:50;;;;;;;5.70;2.20;;;;;;;22.30;55.61;100838.44;4964213;28;20459;-64
2022/09/10 06:56:16;;;;;;;5.60;2.50;;;;;;;22.32;55.44;100849.75;4966087;28;20081;-64
2022/09/10 06:58:42;;;;;;;5.40;2.30;;;;;;;22.27;55.23;100839.56;4975275;28;20478;-65
2022/09/10 07:01:08;;;;;;;7.55;2.25;;;;;;;22.32;55.20;100844.44;4982184;28;20097;-65
2022/09/10 07:03:34;;;;;;;6.50;2.10;;;;;;;22.27;55.61;100847.53;4982990;28;20042;-64
2022/09/10 07:06:04;;;;;;;4.85;2.22;;;;;;;22.28;55.47;100849.16;4981424;28;20105;-65
2022/09/10 07:08:30;;;;;;;4.78;2.47;;;;;;;22.32;55.25;100847.09;4967079;28;20413;-64
2022/09/10 07:10:59;;;;;;;5.32;2.50;;;;;;;22.31;55.52;100848.06;4976819;28;20056;-65
2022/09/10 07:13:26;;;;;;;5.18;2.55;;;;;;;22.32;55.58;100848.91;4982552;28;20382;-64
2022/09/10 07:15:52;;;;;;;4.95;2.65;;;;;;;22.34;55.49;100852.25;4982803;28;20038;-64
2022/09/10 07:18:17;;;;;;;5.45;2.67;;;;;;;22.35;55.52;100845.94;4982999;28;20818;-64
2022/09/10 07:20:43;;;;;;;6.93;2.88;;;;;;;22.37;55.42;100858.09;4967457;28;20031;-64
2022/09/10 07:23:13;;;;;;;6.97;2.50;;;;;;;22.32;55.41;100862.19;4965960;28;20720;-81
2022/09/10 07:25:39;;;;;;;8.23;3.10;;;;;;;22.30;55.74;100862.31;4964108;28;20027;-80
2022/09/10 07:28:05;;;;;;;7.78;2.95;;;;;;;22.32;55.96;100867.47;4975801;28;20029;-72
2022/09/10 07:30:32;;;;;;;8.88;3.05;;;;;;;22.24;56.08;100865.59;4973194;28;20077;-81
2022/09/10 07:33:01;;;;;;;5.22;2.67;;;;;;;22.33;55.97;100874.47;4966776;28;20047;-80
2022/09/10 07:35:26;;;;;;;5.65;2.58;;;;;;;22.32;55.71;100875.44;4968433;28;20027;-74
2022/09/10 07:37:51;;;;;;;4.60;2.43;;;;;;;22.39;55.84;100876.53;4968761;28;20490;-81
2022/09/10 07:40:16;;;;;;;5.28;2.65;;;;;;;22.43;55.51;100869.91;4972644;28;20268;-83
2022/09/10 07:42:45;;;;;;;6.78;2.53;;;;;;;22.51;55.34;100866.50;4968577;28;20455;-78
2022/09/10 07:45:14;;;;;;;6.82;2.70;;;;;;;22.52;55.51;100863.69;4981163;28;20057;-70
2022/09/10 07:47:41;;;;;;;5.78;2.83;;;;;;;22.57;55.17;100879.16;4981745;28;20474;-73
2022/09/10 07:50:07;;;;;;;6.05;2.50;;;;;;;22.60;55.32;100870.88;4981216;28;20041;-74
2022/09/10 07:52:33;;;;;;;8.43;2.85;;;;;;;22.57;55.18;100857.91;4973986;28;20031;-82
2022/09/10 07:55:01;;;;;;;4.45;2.53;;;;;;;22.72;54.92;100868.84;4970275;28;20027;-81
2022/09/10 07:57:27;;;;;;;7.18;2.72;;;;;;;22.83;54.88;100868.59;4970390;28;20057;-77
2022/09/10 07:59:53;;;;;;;5.80;2.75;;;;;;;22.88;54.47;100874.25;4967678;28;20066;-70
2022/09/10 08:02:20;;;;;;;5.20;2.20;;;;;;;22.88;54.42;100889.38;4961042;28;20389;-72
2022/09/10 08:04:46;;;;;;;6.53;2.60;;;;;;;22.85;54.35;100887.03;4965392;28;20089;-87
2022/09/10 08:07:11;;;;;;;6.05;2.42;;;;;;;22.86;54.89;100884.22;4973343;28;20035;-85
2022/09/10 08:09:37;;;;;;;5.88;2.67;;;;;;;22.83;54.59;100880.03;4971399;28;20030;-79
2022/09/10 08:12:06;;;;;;;5.22;2.50;;;;;;;22.95;54.28;100890.41;4972087;28;20491;-63
2022/09/10 08:14:32;;;;;;;5.10;2.50;;;;;;;22.94;54.38;100892.25;4964880;28;20038;-65
2022/09/10 08:16:57;;;;;;;5.82;2.50;;;;;;;22.95;54.87;100898.38;4964692;28;20463;-65
2022/09/10 08:19:23;;;;;;;6.18;2.40;;;;;;;22.90;54.88;100898.84;4962935;28;20625;-64
2022/09/10 08:21:49;;;;;;;3.55;2.35;;;;;;;22.86;54.88;100900.16;4966799;28;20394;-64
2022/09/10 08:24:14;;;;;;;5.28;2.50;;;;;;;22.81;54.85;100902.44;4962340;28;20038;-65
2022/09/10 08:26:40;;;;;;;5.35;2.50;;;;;;;22.83;55.23;100909.28;4962640;28;20110;-65
2022/09/10 08:29:05;;;;;;;4.40;2.17;;;;;;;22.83;55.11;100914.59;4962757;28;20430;-65
2022/09/10 08:31:30;;;;;;;4.97;2.47;;;;;;;22.80;55.21;100920.19;4964720;28;20157;-66
2022/09/10 08:33:56;;;;;;;7.17;2.67;;;;;;;22.79;54.94;100920.34;4969665;28;20038;-83
2022/09/10 08:36:22;;;;;;;4.65;2.30;;;;;;;22.79;54.86;100915.03;4969524;28;20300;-82
2022/09/10 08:38:49;;;;;;;5.97;2.25;;;;;;;22.84;55.31;100928.69;4972659;28;20062;-84
2022/09/10 08:41:38;;;;;;;4.70;2.35;;;;;;;22.86;55.17;100923.22;4951803;28;20035;-82
2022/09/10 08:44:19;;;;;;;9.40;2.80;;;;;;;22.94;54.88;100939.22;4968494;28;20486;-84
2022/09/10 08:46:54;;;;;;;4.35;2.25;;;;;;;22.94;55.07;100940.09;4981034;28;20535;-73
2022/09/10 08:49:56;;;;;;;6.28;2.33;;;;;;;22.98;55.12;100945.91;4979734;28;20041;-79
2022/09/10 08:52:36;;;;;;;4.22;2.30;;;;;;;23.00;54.98;100944.78;4968052;28;20034;-79
2022/09/10 08:55:04;;;;;;;4.65;2.33;;;;;;;23.07;54.63;100950.31;4964532;28;20121;-71
2022/09/10 08:57:44;;;;;;;4.95;2.17;;;;;;;22.98;55.11;100951.22;4974507;28;20062;-72
2022/09/10 09:00:25;;;;;;;4.78;2.10;;;;;;;22.93;54.78;100946.38;4974609;28;20073;-78
2022/09/10 09:02:57;;;;;;;4.30;2.28;;;;;;;23.04;55.23;100955.94;4972639;28;20127;-76
2022/09/10 09:05:24;;;;;;;4.05;2.22;;;;;;;23.09;54.50;100958.16;4977102;28;20047;-76
2022/09/10 09:07:51;;;;;;;5.15;2.30;;;;;;;23.10;54.39;100965.97;4977051;28;20018;-71
2022/09/10 09:10:36;;;;;;;5.07;2.05;;;;;;;23.07;54.94;100965.44;4980405;28;20027;-79
2022/09/10 09:13:33;;;;;;;10.55;2.50;;;;;;;23.07;54.56;100960.94;4966491;28;20137;-81
2022/09/10 09:16:05;;;;;;;7.60;2.20;;;;;;;23.12;54.62;100968.50;4961419;28;20435;-80
2022/09/10 09:19:06;;;;;;;5.47;2.03;;;;;;;23.16;54.42;100962.72;4966406;28;20471;-77
2022/09/10 09:21:51;;;;;;;5.13;2.20;;;;;;;23.20;54.78;100965.88;4976706;28;20034;-66
2022/09/10 09:24:27;;;;;;;3.33;1.80;;;;;;;23.19;54.53;100964.19;4968531;28;20031;-65
2022/09/10 09:27:00;;;;;;;6.93;2.50;;;;;;;23.17;54.93;100960.88;4964611;28;20030;-65
2022/09/10 09:29:43;;;;;;;4.93;2.13;;;;;;;23.10;54.99;100965.97;4962209;28;20023;-64
2022/09/10 09:32:12;;;;;;;4.75;2.00;;;;;;;23.06;54.68;100969.91;4962031;28;20399;-66
2022/09/10 09:34:43;;;;;;;5.25;1.90;;;;;;;23.06;54.75;100966.41;4965586;28;20041;-67
2022/09/10 09:37:16;;;;;;;4.20;2.08;;;;;;;23.02;55.35;100965.91;4977700;28;20442;-66
2022/09/10 09:39:51;;;;;;;4.17;2.00;;;;;;;23.01;55.30;100973.00;4975679;28;20252;-68
2022/09/10 09:42:46;;;;;;;4.72;2.15;;;;;;;23.01;55.13;100970.34;4965683;28;20037;-66
2022/09/10 09:45:24;;;;;;;3.92;2.15;;;;;;;22.97;55.31;100971.66;4981404;28;20139;-65
2022/09/10 09:47:49;;;;;;;6.47;2.20;;;;;;;22.95;55.58;100973.63;4982608;28;20030;-65
2022/09/10 09:50:17;;;;;;;6.22;2.30;;;;;;;22.91;55.65;100974.94;4965122;28;20031;-66
2022/09/10 09:52:44;;;;;;;5.30;1.90;;;;;;;22.93;55.82;100972.94;4965797;28;20371;-79
2022/09/10 09:55:30;;;;;;;4.28;2.08;;;;;;;22.93;55.69;100974.78;4977079;28;20034;-82
2022/09/10 09:58:20;;;;;;;3.60;1.77;;;;;;;22.97;56.04;100976.13;4967759;28;20042;-71
2022/09/10 10:00:48;;;;;;;3.95;2.10;;;;;;;22.94;55.78;100973.78;4973466;28;20035;-72
2022/09/10 10:03:28;;;;;;;4.53;2.35;;;;;;;22.95;55.86;100970.13;4979675;28;20060;-77
2022/09/10 10:06:02;;;;;;;5.05;2.05;;;;;;;22.99;56.24;100966.19;4973141;28;20470;-80
2022/09/10 10:08:39;;;;;;;;;;;;;;;23.03;55.85;100964.88;4981793;28;20069;-78
2022/09/10 10:11:06;;;;;;;5.60;2.30;;;;;;;23.10;55.60;100960.66;4973774;28;19912;-78
2022/09/10 10:13:37;;;;;;;6.40;2.05;;;;;;;23.10;55.78;100957.19;4976551;28;20030;-79
2022/09/10 10:16:22;;;;;;;6.25;2.15;;;;;;;23.21;55.73;100974.69;4982186;28;20051;-78
2022/09/10 10:18:48;;;;;;;6.00;1.85;;;;;;;23.23;55.35;100986.84;4972102;28;20030;-76
2022/09/10 10:21:17;;;;;;;3.40;1.80;;;;;;;23.23;55.90;100999.31;4974445;28;20113;-77
2022/09/10 10:23:43;;;;;;;5.60;2.00;;;;;;;23.21;55.42;100987.97;4981070;28;20092;-77
2022/09/10 10:26:32;;;;;;;4.90;1.90;;;;;;;23.26;55.77;100978.56;4980038;28;20030;-77
2022/09/10 10:29:02;;;;;;;5.35;2.22;;;;;;;23.26;55.35;100981.22;4965332;28;20046;-64
2022/09/10 10:31:44;;;;;;;5.35;2.40;;;;;;;23.27;55.27;100984.69;4978684;28;20050;-64
2022/09/10 10:34:27;;;;;;;6.03;2.00;;;;;;;23.28;55.75;100983.72;4965429;28;20117;-66
2022/09/10 10:37:15;;;;;;;4.28;2.00;;;;;;;23.25;55.18;100989.34;4968177;28;20573;-63
2022/09/10 10:39:54;;;;;;;5.18;1.83;;;;;;;23.21;55.66;100987.97;4966334;28;20042;-64
2022/09/10 10:42:40;;;;;;;5.38;1.95;;;;;;;23.24;55.62;100993.84;4982829;28;20041;-64
2022/09/10 10:45:31;;;;;;;6.05;2.30;;;;;;;23.18;56.21;100989.97;4974937;28;20045;-65
2022/09/10 10:48:08;;;;;;;5.28;2.22;;;;;;;23.19;55.94;100998.75;4970109;28;20031;-64
2022/09/10 10:50:50;;;;;;;5.72;2.20;;;;;;;23.18;55.59;100989.97;4970473;28;20037;-64
2022/09/10 10:53:47;;;;;;;5.65;2.33;;;;;;;23.16;56.29;101005.25;4964258;28;20125;-83
2022/09/10 10:56:34;;;;;;;6.97;2.75;;;;;;;23.18;56.47;101007.75;4972832;28;20038;-78
2022/09/10 10:59:34;;;;;;;6.93;2.10;;;;;;;23.17;56.48;101004.22;4972439;28;20383;-78
2022/09/10 11:02:34;;;;;;;9.05;2.53;;;;;;;23.20;56.46;101011.09;4976144;28;20082;-79
2022/09/10 11:05:15;;;;;;;5.25;2.47;;;;;;;23.18;56.37;101005.91;4966994;28;20485;-78
2022/09/10 11:07:42;;;;;;;5.00;2.20;;;;;;;23.26;56.59;101005.16;4981300;28;20077;-76
2022/09/10 11:10:18;;;;;;;5.50;2.03;;;;;;;23.22;56.42;100993.13;4967455;28;20035;-76
2022/09/10 11:13:08;;;;;;;12.48;2.30;;;;;;;23.31;56.23;100988.72;4975621;28;20345;-73
2022/09/10 11:15:48;;;;;;;6.68;2.40;;;;;;;23.38;55.90;100995.09;4970978;28;20035;-79
2022/09/10 11:18:19;;;;;;;7.82;2.30;;;;;;;23.40;55.85;100993.13;4966971;28;20387;-80
2022/09/10 11:20:52;;;;;;;5.15;2.00;;;;;;;23.44;55.69;100997.13;4975005;28;20038;-78
2022/09/10 11:23:48;;;;;;;5.10;1.92;;;;;;;23.47;55.63;100998.66;4965809;28;20038;-79
2022/09/10 11:26:29;;;;;;;3.90;1.70;;;;;;;23.43;55.81;101002.59;4963178;28;20035;-75
2022/09/10 11:29:33;;;;;;;6.00;2.05;;;;;;;23.50;55.61;100998.34;4969138;28;20582;-76
2022/09/10 11:32:07;;;;;;;6.32;2.17;;;;;;;23.53;55.74;101001.50;4968721;28;20178;-78
2022/09/10 11:34:58;;;;;;;4.97;2.08;;;;;;;23.53;55.45;101006.81;4963805;28;20119;-77
2022/09/10 11:37:35;;;;;;;4.72;1.80;;;;;;;23.52;55.43;101018.44;4963299;28;20061;-66
2022/09/10 11:40:11;;;;;;;5.60;2.00;;;;;;;23.44;55.59;101020.22;4963689;28;20041;-72
2022/09/10 11:42:43;;;;;;;4.82;1.90;;;;;;;23.44;55.97;101022.91;4973528;28;20443;-67